Time;durP1;ratioP1;P1;durP2;ratioP2;P2;SDS_P1;SDS_P2;PMS_P1;PMS_P2;Temp;Humidity;BMP_temperature;BMP_pressure;BME280_temperature;BME280_humidity;BME280_pressure;Samples;Min_cycle;Max_cycle;Signal;HPM_P1;HPM_P2
2022/10/01 00:00:48;;;;;;;0.15;0.15;;;11.40;99.90;;;;;;5078260;28;20037;-75
2022/10/01 00:03:15;;;;;;;0.20;0.20;;;11.50;99.90;;;;;;5061866;28;20076;-75
2022/10/01 00:05:41;;;;;;;0.20;0.20;;;11.50;99.90;;;;;;5050859;28;20559;-76
2022/10/01 00:08:07;;;;;;;0.10;0.10;;;11.30;99.90;;;;;;5072822;28;20123;-77
2022/10/01 00:10:32;;;;;;;0.10;0.10;;;11.30;99.90;;;;;;5068104;28;20124;-76
2022/10/01 00:12:58;;;;;;;0.20;0.20;;;11.30;99.90;;;;;;5071160;28;20039;-76
2022/10/01 00:15:25;;;;;;;0.20;0.20;;;11.30;99.90;;;;;;5069712;28;20476;-76
2022/10/01 00:17:52;;;;;;;0.20;0.20;;;11.30;99.90;;;;;;5050995;28;20441;-77
2022/10/01 00:20:18;;;;;;;0.20;0.20;;;11.30;99.90;;;;;;5068790;28;20124;-76
2022/10/01 00:22:46;;;;;;;0.10;0.10;;;11.30;99.90;;;;;;5070144;28;20532;-76
2022/10/01 00:25:12;;;;;;;0.20;0.20;;;11.30;99.90;;;;;;5048680;28;20436;-76
2022/10/01 00:27:38;;;;;;;0.20;0.20;;;11.30;99.90;;;;;;5064284;28;20051;-76
2022/10/01 00:30:05;;;;;;;0.20;0.20;;;11.30;99.90;;;;;;5048040;28;20052;-76
2022/10/01 00:32:31;;;;;;;0.10;0.10;;;11.20;99.90;;;;;;5066647;28;20084;-75
2022/10/01 00:34:58;;;;;;;0.17;0.17;;;11.20;99.90;;;;;;5069158;28;20481;-76
2022/10/01 00:37:25;;;;;;;0.30;0.30;;;11.30;99.90;;;;;;5067294;28;20048;-76
2022/10/01 00:39:50;;;;;;;0.20;0.20;;;11.20;99.90;;;;;;5066760;28;20047;-76
2022/10/01 00:42:23;;;;;;;0.20;0.20;;;11.20;99.90;;;;;;5067853;28;20534;-76
2022/10/01 00:44:49;;;;;;;0.20;0.20;;;11.30;99.90;;;;;;5046170;28;20105;-77
2022/10/01 00:47:53;;;;;;;0.20;0.20;;;11.20;99.90;;;;;;5052201;28;20051;-77
2022/10/01 00:50:33;;;;;;;0.20;0.20;;;11.10;99.90;;;;;;5043430;28;20512;-76
2022/10/01 00:53:05;;;;;;;0.20;0.20;;;11.10;99.90;;;;;;5059300;28;20044;-77
2022/10/01 00:55:42;;;;;;;0.10;0.10;;;11.10;99.90;;;;;;5051847;28;20055;-76
2022/10/01 00:58:11;;;;;;;0.17;0.17;;;11.10;99.90;;;;;;5068657;28;20053;-76
2022/10/01 01:00:39;;;;;;;0.20;0.20;;;11.10;99.90;;;;;;5039151;28;20051;-76
2022/10/01 01:03:05;;;;;;;0.20;0.20;;;11.00;99.90;;;;;;5067641;28;20512;-76
2022/10/01 01:05:31;;;;;;;0.20;0.20;;;11.10;99.90;;;;;;5048153;28;20044;-75
2022/10/01 01:08:00;;;;;;;0.20;0.20;;;11.00;99.90;;;;;;5050674;28;20049;-75
2022/10/01 01:10:36;;;;;;;0.20;0.20;;;11.10;99.90;;;;;;5051504;28;20041;-75
2022/10/01 01:13:15;;;;;;;0.20;0.20;;;11.10;99.90;;;;;;5050339;28;20102;-75
2022/10/01 01:15:51;;;;;;;0.17;0.17;;;11.10;99.90;;;;;;5069883;28;20132;-75
2022/10/01 01:18:43;;;;;;;0.17;0.17;;;11.10;99.90;;;;;;5067409;28;20051;-75
2022/10/01 01:21:19;;;;;;;;;;;11.00;99.90;;;;;;5067584;28;20049;-75
2022/10/01 01:24:26;;;;;;;0.10;0.10;;;11.00;99.90;;;;;;5047215;28;19920;-75
2022/10/01 01:27:22;;;;;;;0.20;0.20;;;11.00;99.90;;;;;;5057151;28;20388;-76
2022/10/01 01:29:51;;;;;;;0.10;0.10;;;11.00;99.90;;;;;;5060597;28;20147;-76
2022/10/01 01:32:45;;;;;;;0.20;0.20;;;11.50;99.90;;;;;;5050401;28;20048;-76
2022/10/01 01:35:17;;;;;;;0.20;0.20;;;11.00;99.90;;;;;;5054512;28;20047;-76
2022/10/01 01:37:50;;;;;;;0.20;0.20;;;11.00;99.90;;;;;;5069621;28;20103;-76
2022/10/01 01:40:18;;;;;;;0.20;0.20;;;11.00;99.90;;;;;;5055939;28;20116;-75
2022/10/01 01:42:46;;;;;;;0.20;0.20;;;10.90;99.90;;;;;;5066329;28;20052;-75
2022/10/01 01:45:16;;;;;;;0.20;0.20;;;11.10;99.90;;;;;;5073807;28;20040;-76
2022/10/01 01:47:44;;;;;;;0.20;0.20;;;11.00;99.90;;;;;;5061721;28;20040;-76
2022/10/01 01:50:12;;;;;;;0.20;0.20;;;11.10;99.90;;;;;;5064526;28;20558;-77
2022/10/01 01:52:38;;;;;;;0.20;0.20;;;10.90;99.90;;;;;;5066288;28;20051;-76
2022/10/01 01:55:07;;;;;;;0.20;0.20;;;10.90;99.90;;;;;;5042569;28;20040;-76
2022/10/01 01:57:39;;;;;;;0.20;0.20;;;11.00;99.90;;;;;;5050290;28;20094;-75
2022/10/01 02:00:05;;;;;;;0.10;0.10;;;10.90;99.90;;;;;;5051455;28;20044;-76
2022/10/01 02:02:33;;;;;;;0.20;0.20;;;10.90;99.90;;;;;;5069856;28;20040;-76
2022/10/01 02:05:08;;;;;;;0.20;0.20;;;10.90;99.90;;;;;;5056177;28;20052;-76
2022/10/01 02:07:58;;;;;;;0.20;0.20;;;10.90;99.90;;;;;;5069084;28;20166;-76
2022/10/01 02:10:59;;;;;;;0.20;0.20;;;10.90;99.90;;;;;;5049180;28;20098;-76
2022/10/01 02:13:54;;;;;;;0.20;0.20;;;10.90;99.90;;;;;;5069094;28;20053;-76
2022/10/01 02:16:47;;;;;;;0.20;0.20;;;10.90;99.90;;;;;;5033816;28;20048;-75
2022/10/01 02:19:44;;;;;;;0.20;0.20;;;10.90;99.90;;;;;;5046500;28;20036;-75
2022/10/01 02:22:31;;;;;;;0.20;0.20;;;10.90;99.90;;;;;;5047169;28;20044;-76
2022/10/01 02:24:58;;;;;;;0.20;0.20;;;10.90;99.90;;;;;;5049071;28;20077;-76
2022/10/01 02:27:35;;;;;;;0.20;0.20;;;11.00;99.90;;;;;;5045199;28;20068;-76
2022/10/01 02:30:08;;;;;;;0.10;0.10;;;10.90;99.90;;;;;;5054029;28;20051;-76
2022/10/01 02:32:36;;;;;;;0.20;0.20;;;10.90;99.90;;;;;;5046460;28;20059;-77
2022/10/01 02:35:04;;;;;;;0.20;0.20;;;10.90;99.90;;;;;;5048584;28;20052;-76
2022/10/01 02:37:31;;;;;;;0.20;0.20;;;10.90;99.90;;;;;;5065451;28;20799;-76
2022/10/01 02:39:59;;;;;;;0.20;0.20;;;10.90;99.90;;;;;;5068743;28;20488;-76
2022/10/01 02:42:27;;;;;;;0.20;0.20;;;10.90;99.90;;;;;;5050748;28;20138;-76
2022/10/01 02:44:55;;;;;;;0.10;0.10;;;10.90;99.90;;;;;;5050609;28;20041;-76
2022/10/01 02:47:51;;;;;;;0.20;0.20;;;11.00;99.90;;;;;;5047865;28;20404;-76
2022/10/01 02:50:17;;;;;;;0.20;0.20;;;10.90;99.90;;;;;;5062114;28;20052;-76
2022/10/01 02:52:52;;;;;;;0.10;0.10;;;10.90;99.90;;;;;;5066057;28;20036;-76
2022/10/01 02:55:22;;;;;;;0.20;0.20;;;10.90;99.90;;;;;;5067950;28;20186;-76
2022/10/01 02:57:49;;;;;;;0.10;0.10;;;10.90;99.90;;;;;;5049277;28;20052;-76
2022/10/01 03:00:20;;;;;;;0.32;0.20;;;10.90;99.90;;;;;;5047434;28;20044;-76
2022/10/01 03:02:47;;;;;;;0.20;0.20;;;10.90;99.90;;;;;;5066317;28;20040;-77
2022/10/01 03:05:14;;;;;;;0.20;0.20;;;10.90;99.90;;;;;;5048876;28;20052;-76
2022/10/01 03:07:42;;;;;;;0.20;0.20;;;10.90;99.90;;;;;;5071026;28;20392;-76
2022/10/01 03:10:10;;;;;;;0.10;0.10;;;11.00;99.90;;;;;;5051257;28;20075;-77
2022/10/01 03:12:36;;;;;;;0.20;0.20;;;11.00;99.90;;;;;;5051246;28;20622;-77
2022/10/01 03:15:03;;;;;;;0.35;0.22;;;10.90;99.90;;;;;;5048015;28;20385;-77
2022/10/01 03:17:28;;;;;;;0.20;0.20;;;10.90;99.90;;;;;;5048987;28;20052;-77
2022/10/01 03:19:54;;;;;;;0.10;0.10;;;11.00;99.90;;;;;;5049567;28;20446;-78
2022/10/01 03:22:22;;;;;;;0.20;0.20;;;11.00;99.90;;;;;;5068024;28;20041;-78
2022/10/01 03:24:51;;;;;;;0.17;0.17;;;11.00;99.90;;;;;;5074822;28;20088;-77
2022/10/01 03:27:17;;;;;;;0.10;0.10;;;11.00;99.90;;;;;;5061002;28;20092;-78
2022/10/01 03:29:44;;;;;;;0.20;0.20;;;11.00;99.90;;;;;;5050817;28;20052;-77
2022/10/01 03:32:10;;;;;;;0.20;0.20;;;11.00;99.90;;;;;;5045826;28;20125;-77
2022/10/01 03:34:35;;;;;;;0.20;0.20;;;11.00;99.90;;;;;;5047343;28;20095;-78
2022/10/01 03:37:01;;;;;;;0.10;0.10;;;11.00;99.90;;;;;;5044938;28;20419;-78
2022/10/01 03:39:27;;;;;;;0.20;0.20;;;11.00;99.90;;;;;;5045736;28;20049;-78
2022/10/01 03:41:52;;;;;;;0.20;0.20;;;11.00;99.90;;;;;;5046793;28;20472;-79
2022/10/01 03:44:18;;;;;;;0.20;0.20;;;11.20;99.90;;;;;;5046218;28;20610;-77
2022/10/01 03:46:44;;;;;;;0.10;0.10;;;11.10;99.90;;;;;;5050012;28;20055;-77
2022/10/01 03:49:09;;;;;;;0.10;0.10;;;11.10;99.90;;;;;;5048350;28;20044;-79
2022/10/01 03:51:36;;;;;;;0.20;0.20;;;11.10;99.90;;;;;;5050005;28;20036;-79
2022/10/01 03:54:02;;;;;;;0.20;0.20;;;11.10;99.90;;;;;;5051721;28;20064;-78
2022/10/01 03:56:28;;;;;;;0.20;0.20;;;11.10;99.90;;;;;;5048248;28;20052;-79
2022/10/01 03:58:54;;;;;;;0.20;0.20;;;11.10;99.90;;;;;;5051655;28;20033;-78
2022/10/01 04:01:19;;;;;;;0.20;0.20;;;11.20;99.90;;;;;;5051047;28;20076;-77
2022/10/01 04:03:46;;;;;;;0.20;0.20;;;11.20;99.90;;;;;;5050316;28;20554;-78
2022/10/01 04:06:12;;;;;;;0.20;0.20;;;11.20;99.90;;;;;;5051193;28;20378;-79
2022/10/01 04:08:37;;;;;;;0.20;0.20;;;11.20;99.90;;;;;;5050393;28;20048;-77
2022/10/01 04:11:04;;;;;;;0.10;0.10;;;11.30;99.90;;;;;;5051733;28;20439;-78
2022/10/01 04:13:30;;;;;;;0.10;0.10;;;11.30;99.90;;;;;;5052631;28;20123;-77
2022/10/01 04:15:56;;;;;;;0.20;0.20;;;11.20;99.90;;;;;;5051887;28;20509;-78
2022/10/01 04:18:22;;;;;;;0.10;0.10;;;11.20;99.90;;;;;;5049879;28;20124;-79
2022/10/01 04:20:47;;;;;;;0.20;0.20;;;11.30;99.90;;;;;;5049686;28;20072;-78
2022/10/01 04:23:13;;;;;;;0.10;0.10;;;11.30;99.90;;;;;;5050366;28;20052;-77
2022/10/01 04:25:39;;;;;;;0.20;0.20;;;11.30;99.90;;;;;;5050847;28;20041;-75
2022/10/01 04:28:07;;;;;;;0.10;0.10;;;11.20;99.90;;;;;;5055596;28;20056;-75
2022/10/01 04:30:35;;;;;;;0.20;0.20;;;11.30;99.90;;;;;;5067741;28;20476;-78
2022/10/01 04:33:02;;;;;;;0.17;0.17;;;11.30;99.90;;;;;;5042614;28;20127;-77
2022/10/01 04:35:28;;;;;;;0.13;0.13;;;11.30;99.90;;;;;;5043753;28;20055;-77
2022/10/01 04:37:56;;;;;;;0.20;0.20;;;11.30;99.90;;;;;;5069408;28;20154;-77
2022/10/01 04:40:22;;;;;;;0.20;0.20;;;11.30;99.90;;;;;;5052522;28;20051;-78
2022/10/01 04:42:47;;;;;;;0.20;0.20;;;11.30;99.90;;;;;;5046178;28;20072;-77
2022/10/01 04:45:13;;;;;;;0.10;0.10;;;11.30;99.90;;;;;;5052345;28;20079;-78
2022/10/01 04:47:50;;;;;;;0.15;0.15;;;11.30;99.90;;;;;;5067827;28;20415;-78
2022/10/01 04:50:16;;;;;;;0.10;0.10;;;11.30;99.90;;;;;;5048695;28;20147;-77
2022/10/01 04:52:42;;;;;;;0.10;0.10;;;11.40;99.90;;;;;;5069652;28;20056;-78
2022/10/01 04:55:08;;;;;;;0.20;0.20;;;11.40;99.90;;;;;;5050647;28;20052;-79
2022/10/01 04:57:35;;;;;;;0.15;0.15;;;11.40;99.90;;;;;;5052156;28;20110;-77
2022/10/01 05:00:03;;;;;;;0.20;0.20;;;11.40;99.90;;;;;;5065185;28;20043;-77
2022/10/01 05:02:29;;;;;;;0.10;0.10;;;11.40;99.90;;;;;;5051252;28;20044;-77
2022/10/01 05:04:55;;;;;;;0.20;0.20;;;11.80;99.90;;;;;;5048110;28;20082;-77
2022/10/01 05:07:21;;;;;;;0.10;0.10;;;11.50;99.90;;;;;;5052948;28;20040;-76
2022/10/01 05:09:47;;;;;;;0.10;0.10;;;11.50;99.90;;;;;;5070997;28;20090;-74
2022/10/01 05:12:13;;;;;;;0.20;0.20;;;11.50;99.90;;;;;;5097084;28;20407;-78
2022/10/01 05:14:39;;;;;;;0.10;0.10;;;11.60;99.90;;;;;;5043179;28;20032;-77
2022/10/01 05:17:06;;;;;;;0.20;0.20;;;11.50;99.90;;;;;;5069781;28;20400;-78
2022/10/01 05:19:32;;;;;;;0.20;0.20;;;11.60;99.90;;;;;;5051165;28;20048;-79
2022/10/01 05:21:58;;;;;;;0.20;0.20;;;11.50;99.90;;;;;;5049209;28;20028;-79
2022/10/01 05:24:24;;;;;;;0.20;0.20;;;11.60;99.90;;;;;;5051354;28;20406;-78
2022/10/01 05:26:52;;;;;;;0.10;0.10;;;11.60;99.90;;;;;;5048962;28;20496;-78
2022/10/01 05:29:18;;;;;;;0.20;0.20;;;11.70;99.90;;;;;;5069770;28;20583;-79
2022/10/01 05:31:45;;;;;;;0.20;0.20;;;11.60;99.90;;;;;;5062857;28;20117;-78
2022/10/01 05:34:11;;;;;;;0.10;0.10;;;11.70;99.90;;;;;;5056575;28;20182;-79
2022/10/01 05:36:36;;;;;;;0.10;0.10;;;11.70;99.90;;;;;;5067964;28;20119;-79
2022/10/01 05:39:02;;;;;;;0.20;0.20;;;11.70;99.90;;;;;;5068666;28;20055;-78
2022/10/01 05:41:28;;;;;;;0.20;0.20;;;11.70;99.90;;;;;;5049300;28;20036;-79
2022/10/01 05:43:54;;;;;;;0.20;0.20;;;11.70;99.90;;;;;;5049452;28;20040;-79
2022/10/01 05:46:20;;;;;;;0.10;0.10;;;11.70;99.90;;;;;;5049648;28;20131;-79
2022/10/01 05:48:48;;;;;;;0.10;0.10;;;11.70;99.90;;;;;;5046065;28;20443;-79
2022/10/01 05:51:15;;;;;;;0.20;0.20;;;11.70;99.90;;;;;;5065195;28;20187;-79
2022/10/01 05:53:40;;;;;;;0.20;0.20;;;11.80;99.90;;;;;;5046292;28;20435;-78
2022/10/01 05:56:06;;;;;;;0.20;0.20;;;11.80;99.90;;;;;;5068784;28;20097;-78
2022/10/01 05:58:32;;;;;;;0.15;0.15;;;11.80;99.90;;;;;;5069228;28;20056;-78
2022/10/01 06:00:58;;;;;;;0.10;0.10;;;11.80;99.90;;;;;;5049799;28;20090;-78
2022/10/01 06:03:25;;;;;;;0.20;0.20;;;11.80;99.90;;;;;;5067998;28;20481;-77
2022/10/01 06:05:53;;;;;;;0.20;0.20;;;11.90;99.90;;;;;;5067895;28;20067;-78
2022/10/01 06:08:18;;;;;;;0.20;0.20;;;11.90;99.90;;;;;;5068996;28;20454;-79
2022/10/01 06:10:45;;;;;;;0.20;0.20;;;11.90;99.90;;;;;;5068213;28;20040;-78
2022/10/01 06:13:15;;;;;;;0.20;0.20;;;11.90;99.90;;;;;;5050510;28;20045;-79
2022/10/01 06:15:40;;;;;;;0.20;0.20;;;11.90;99.90;;;;;;5045944;28;20048;-78
2022/10/01 06:18:08;;;;;;;0.20;0.20;;;12.00;99.90;;;;;;5063973;28;20116;-78
2022/10/01 06:20:34;;;;;;;0.20;0.20;;;12.00;99.90;;;;;;5071804;28;20094;-78
2022/10/01 06:23:00;;;;;;;0.20;0.20;;;12.10;99.90;;;;;;5067484;28;20412;-79
2022/10/01 06:25:28;;;;;;;0.20;0.20;;;12.10;99.90;;;;;;5066495;28;20074;-78
2022/10/01 06:27:56;;;;;;;0.20;0.20;;;12.10;99.90;;;;;;5048514;28;20099;-79
2022/10/01 06:30:28;;;;;;;0.20;0.20;;;12.20;99.90;;;;;;5049565;28;20044;-78
2022/10/01 06:33:03;;;;;;;0.20;0.20;;;12.20;99.90;;;;;;5053912;28;20053;-79
2022/10/01 06:35:30;;;;;;;0.10;0.10;;;12.20;99.90;;;;;;5047973;28;20076;-79
2022/10/01 06:37:55;;;;;;;0.10;0.10;;;12.20;99.90;;;;;;5047468;28;20056;-79
2022/10/01 06:40:21;;;;;;;0.15;0.15;;;12.20;99.90;;;;;;5048589;28;20044;-79
2022/10/01 06:42:48;;;;;;;0.20;0.20;;;12.30;99.90;;;;;;5068654;28;20044;-79
2022/10/01 06:45:15;;;;;;;0.20;0.20;;;12.20;99.90;;;;;;5048169;28;20055;-79
2022/10/01 06:47:41;;;;;;;0.10;0.10;;;12.40;99.90;;;;;;5046540;28;20044;-78
2022/10/01 06:50:07;;;;;;;0.10;0.10;;;12.30;99.90;;;;;;5045787;28;20370;-78
2022/10/01 06:52:50;;;;;;;0.10;0.10;;;12.30;99.90;;;;;;5069988;28;20052;-79
2022/10/01 06:55:18;;;;;;;0.20;0.20;;;12.30;99.90;;;;;;5068013;28;20040;-79
2022/10/01 06:57:45;;;;;;;0.20;0.20;;;12.30;99.90;;;;;;5059407;28;20051;-79
2022/10/01 07:00:13;;;;;;;0.20;0.20;;;12.40;99.90;;;;;;5047099;28;20550;-79
2022/10/01 07:02:39;;;;;;;0.20;0.20;;;12.40;99.90;;;;;;5065980;28;20064;-78
2022/10/01 07:05:06;;;;;;;0.20;0.20;;;12.50;99.90;;;;;;5067244;28;20047;-79
2022/10/01 07:07:36;;;;;;;0.10;0.10;;;12.50;99.90;;;;;;5047847;28;20163;-78
2022/10/01 07:10:04;;;;;;;0.20;0.20;;;12.50;99.90;;;;;;5048067;28;20072;-79
2022/10/01 07:12:30;;;;;;;0.20;0.20;;;12.60;99.90;;;;;;5067295;28;20048;-79
2022/10/01 07:14:55;;;;;;;0.15;0.15;;;12.60;99.90;;;;;;5048228;28;20087;-78
2022/10/01 07:17:21;;;;;;;0.15;0.15;;;12.60;99.90;;;;;;5065863;28;20399;-77
2022/10/01 07:19:47;;;;;;;0.10;0.10;;;12.70;99.90;;;;;;5047150;28;20059;-78
2022/10/01 07:22:13;;;;;;;0.20;0.20;;;12.70;99.90;;;;;;5070479;28;20124;-77
2022/10/01 07:24:38;;;;;;;0.20;0.20;;;12.80;99.90;;;;;;5091599;28;20718;-77
2022/10/01 07:27:05;;;;;;;0.20;0.20;;;12.80;99.90;;;;;;5054507;28;20152;-78
2022/10/01 07:29:31;;;;;;;0.20;0.20;;;12.90;99.90;;;;;;5049162;28;20045;-77
2022/10/01 07:31:58;;;;;;;0.13;0.13;;;12.90;99.90;;;;;;5053736;28;20037;-78
2022/10/01 07:34:25;;;;;;;0.10;0.10;;;12.90;99.90;;;;;;5040971;28;20049;-78
2022/10/01 07:36:51;;;;;;;0.10;0.10;;;12.90;99.90;;;;;;5050483;28;20049;-79
2022/10/01 07:39:16;;;;;;;0.20;0.20;;;13.00;99.90;;;;;;5052143;28;20039;-78
2022/10/01 07:41:42;;;;;;;0.20;0.20;;;13.00;99.90;;;;;;5045305;28;20042;-83
2022/10/01 07:44:11;;;;;;;0.20;0.20;;;13.10;99.90;;;;;;5041822;28;20409;-80
2022/10/01 07:46:37;;;;;;;0.20;0.20;;;13.10;99.90;;;;;;5046330;28;20044;-79
2022/10/01 07:49:03;;;;;;;0.15;0.15;;;13.00;99.90;;;;;;5044142;28;20044;-79
2022/10/01 07:51:32;;;;;;;0.10;0.10;;;13.10;99.90;;;;;;5051515;28;20120;-78
2022/10/01 07:54:01;;;;;;;0.15;0.15;;;13.20;99.90;;;;;;5048277;28;20052;-79
2022/10/01 07:56:30;;;;;;;0.20;0.20;;;13.20;99.90;;;;;;5048942;28;20052;-79
2022/10/01 07:58:57;;;;;;;0.20;0.20;;;13.30;99.90;;;;;;5050514;28;20041;-79
2022/10/01 08:01:23;;;;;;;0.20;0.20;;;13.40;99.90;;;;;;5050523;28;20115;-79
2022/10/01 08:03:49;;;;;;;0.20;0.20;;;13.40;99.90;;;;;;5049535;28;20056;-79
2022/10/01 08:06:17;;;;;;;0.20;0.20;;;13.40;99.90;;;;;;5049979;28;20045;-79
2022/10/01 08:08:43;;;;;;;0.20;0.20;;;13.50;99.90;;;;;;5049067;28;20040;-78
2022/10/01 08:11:12;;;;;;;0.20;0.20;;;13.60;99.90;;;;;;5048011;28;20046;-79
2022/10/01 08:13:41;;;;;;;0.20;0.20;;;13.70;99.90;;;;;;5044416;28;20049;-79
2022/10/01 08:16:08;;;;;;;0.20;0.20;;;13.70;99.90;;;;;;5048685;28;20049;-79
2022/10/01 08:18:35;;;;;;;0.10;0.10;;;13.80;99.90;;;;;;5047645;28;20480;-79
2022/10/01 08:21:02;;;;;;;0.20;0.20;;;13.90;99.90;;;;;;5050172;28;20106;-78
2022/10/01 08:23:30;;;;;;;0.10;0.10;;;13.90;99.90;;;;;;5051264;28;20077;-79
2022/10/01 08:26:01;;;;;;;0.20;0.20;;;14.00;99.90;;;;;;5053512;28;20052;-78
2022/10/01 08:28:26;;;;;;;0.20;0.20;;;14.00;99.90;;;;;;5072527;28;20387;-78
2022/10/01 08:30:52;;;;;;;0.20;0.20;;;14.10;99.90;;;;;;5072812;28;20128;-78
2022/10/01 08:33:17;;;;;;;0.20;0.20;;;14.20;99.90;;;;;;5082972;28;20044;-77
2022/10/01 08:35:43;;;;;;;0.20;0.20;;;14.20;99.90;;;;;;5079051;28;20516;-78
2022/10/01 08:38:10;;;;;;;0.20;0.20;;;14.40;99.90;;;;;;5075651;28;20159;-78
2022/10/01 08:40:47;;;;;;;0.20;0.20;;;14.40;99.90;;;;;;5070357;28;20503;-79
2022/10/01 08:43:28;;;;;;;0.10;0.10;;;14.40;99.90;;;;;;5051556;28;20049;-79
2022/10/01 08:45:58;;;;;;;0.17;0.17;;;14.40;99.90;;;;;;5064688;28;20043;-79
2022/10/01 08:48:28;;;;;;;0.10;0.10;;;;;;;;;;5059111;28;20101;-81
2022/10/01 08:50:57;;;;;;;0.10;0.10;;;;;;;;;;5064734;28;20041;-78
2022/10/01 08:53:41;;;;;;;0.20;0.20;;;;;;;;;;5070057;28;20036;-78
2022/10/01 08:56:22;;;;;;;0.20;0.20;;;;;;;;;;5048069;28;20048;-78
2022/10/01 08:58:52;;;;;;;0.20;0.20;;;;;;;;;;5040155;28;20423;-78
2022/10/01 09:01:19;;;;;;;0.15;0.15;;;;;;;;;;5071894;28;20049;-78
2022/10/01 09:03:48;;;;;;;0.10;0.10;;;;;;;;;;5050120;28;20044;-78
2022/10/01 09:06:22;;;;;;;0.20;0.20;;;;;;;;;;5071143;28;20104;-77
2022/10/01 09:09:07;;;;;;;0.10;0.10;;;;;;;;;;5051521;28;20048;-77
2022/10/01 09:11:48;;;;;;;0.10;0.10;;;;;;;;;;5048490;28;20048;-77
2022/10/01 09:14:18;;;;;;;0.10;0.10;;;;;;;;;;5036073;28;20052;-78
2022/10/01 09:16:56;;;;;;;0.10;0.10;;;;;;;;;;5069519;28;20105;-79
2022/10/01 09:19:25;;;;;;;0.20;0.20;;;;;;;;;;5065740;28;20496;-79
2022/10/01 09:22:03;;;;;;;0.10;0.10;;;;;;;;;;5048713;28;20095;-78
2022/10/01 09:24:46;;;;;;;0.10;0.10;;;;;;;;;;5051394;28;20556;-78
2022/10/01 09:27:16;;;;;;;0.20;0.20;;;;;;;;;;5050771;28;20048;-79
2022/10/01 09:29:45;;;;;;;0.20;0.20;;;;;;;;;;5033384;28;20132;-79
2022/10/01 09:32:14;;;;;;;0.20;0.20;;;;;;;;;;5033936;28;20049;-79
2022/10/01 09:34:41;;;;;;;0.20;0.20;;;;;;;;;;5049825;28;20431;-78
2022/10/01 09:37:13;;;;;;;0.10;0.10;;;;;;;;;;5054061;28;20044;-78
2022/10/01 09:39:56;;;;;;;0.20;0.20;;;;;;;;;;5051338;28;20045;-78
2022/10/01 09:42:24;;;;;;;0.10;0.10;;;;;;;;;;5034444;28;20387;-79
2022/10/01 09:44:50;;;;;;;0.10;0.10;;;;;;;;;;5052226;28;20483;-79
2022/10/01 09:47:17;;;;;;;0.10;0.10;;;;;;;;;;5053090;28;20098;-80
2022/10/01 09:49:45;;;;;;;0.20;0.20;;;;;;;;;;5052129;28;20140;-79
2022/10/01 09:52:18;;;;;;;0.20;0.20;;;;;;;;;;5072158;28;20445;-79
2022/10/01 09:54:48;;;;;;;0.20;0.20;;;;;;;;;;5053178;28;20053;-79
2022/10/01 09:57:20;;;;;;;0.10;0.10;;;;;;;;;;5053639;28;20052;-78
2022/10/01 09:59:56;;;;;;;0.15;0.15;;;;;;;;;;5053488;28;20048;-79
2022/10/01 10:02:25;;;;;;;0.20;0.20;;;;;;;;;;5053446;28;20045;-79
2022/10/01 10:05:00;;;;;;;0.10;0.10;;;;;;;;;;5052451;28;20447;-78
2022/10/01 10:07:26;;;;;;;0.17;0.17;;;;;;;;;;5065367;28;20045;-77
2022/10/01 10:09:53;;;;;;;0.20;0.20;;;;;;;;;;5065553;28;20055;-78
2022/10/01 10:12:24;;;;;;;0.20;0.20;;;;;;;;;;5052318;28;20063;-78
2022/10/01 10:14:50;;;;;;;0.20;0.20;;;;;;;;;;5086749;28;20041;-77
2022/10/01 10:17:16;;;;;;;0.10;0.10;;;;;;;;;;5067264;28;20184;-78
2022/10/01 10:19:50;;;;;;;0.20;0.20;;;;;;;;;;5070753;28;20052;-78
2022/10/01 10:22:25;;;;;;;0.20;0.20;;;;;;;;;;5070410;28;20084;-78
2022/10/01 10:24:52;;;;;;;0.20;0.20;;;;;;;;;;5070147;28;20041;-78
2022/10/01 10:27:29;;;;;;;0.20;0.20;;;;;;;;;;5052182;28;20512;-79
2022/10/01 10:30:04;;;;;;;0.20;0.20;;;;;;;;;;5070470;28;20056;-77
2022/10/01 10:32:30;;;;;;;0.30;0.30;;;;;;;;;;5076093;28;20448;-78
2022/10/01 10:34:59;;;;;;;0.17;0.17;;;;;;;;;;5054000;28;20500;-77
2022/10/01 10:37:28;;;;;;;0.17;0.17;;;;;;;;;;5037413;28;20487;-78
2022/10/01 10:39:54;;;;;;;0.20;0.20;;;;;;;;;;5051966;28;20131;-78
2022/10/01 10:42:24;;;;;;;0.20;0.20;;;;;;;;;;5070228;28;20041;-78
2022/10/01 10:44:52;;;;;;;0.15;0.15;;;;;;;;;;5069416;28;20052;-77
2022/10/01 10:47:20;;;;;;;0.10;0.10;;;;;;;;;;5069972;28;20070;-76
2022/10/01 10:49:57;;;;;;;0.10;0.10;;;;;;;;;;5066105;28;20072;-76
2022/10/01 10:52:32;;;;;;;0.10;0.10;;;;;;;;;;5065872;28;20121;-77
2022/10/01 10:54:59;;;;;;;0.13;0.13;;;;;;;;;;5068301;28;20274;-78
2022/10/01 10:57:33;;;;;;;0.10;0.10;;;;;;;;;;5071526;28;20431;-77
2022/10/01 11:00:38;;;;;;;0.10;0.10;;;;;;;;;;5089638;28;20044;-78
2022/10/01 11:03:05;;;;;;;0.10;0.10;;;;;;;;;;4974899;28;20484;-77
2022/10/01 11:05:33;;;;;;;0.17;0.17;;;;;;;;;;4957969;28;20043;-77
2022/10/01 11:08:02;;;;;;;0.10;0.10;;;;;;;;;;5042756;28;20079;-77
2022/10/01 11:10:37;;;;;;;0.10;0.10;;;;;;;;;;5084883;28;20072;-77
2022/10/01 11:13:18;;;;;;;0.20;0.20;;;;;;;;;;5079907;28;20051;-77
2022/10/01 11:16:03;;;;;;;0.20;0.20;;;;;;;;;;5052491;28;20052;-76
2022/10/01 11:18:29;;;;;;;0.10;0.10;;;;;;;;;;5054144;28;20060;-76
2022/10/01 11:21:11;;;;;;;0.10;0.10;;;;;;;;;;5053319;28;20044;-77
2022/10/01 11:23:50;;;;;;;0.20;0.20;;;;;;;;;;5072730;28;20040;-78
2022/10/01 11:26:19;;;;;;;0.10;0.10;;;;;;;;;;5071410;28;20088;-78
2022/10/01 11:29:03;;;;;;;0.20;0.20;;;;;;;;;;5074269;28;20063;-78
2022/10/01 11:31:29;;;;;;;0.20;0.20;;;;;;;;;;5074083;28;20047;-77
2022/10/01 11:34:01;;;;;;;0.20;0.20;;;;;;;;;;5052017;28;20045;-79
2022/10/01 11:36:27;;;;;;;0.10;0.10;;;;;;;;;;5054885;28;20051;-79
2022/10/01 11:39:10;;;;;;;0.20;0.20;;;;;;;;;;5045353;28;20037;-78
2022/10/01 11:41:41;;;;;;;0.20;0.20;;;;;;;;;;5065193;28;20051;-78
2022/10/01 11:44:09;;;;;;;0.20;0.20;;;;;;;;;;5071260;28;20102;-77
2022/10/01 11:46:53;;;;;;;0.10;0.10;;;;;;;;;;5052086;28;20040;-78
2022/10/01 11:49:26;;;;;;;0.20;0.20;;;;;;;;;;5054030;28;20101;-78
2022/10/01 11:51:59;;;;;;;0.17;0.17;;;;;;;;;;5074120;28;20047;-78
2022/10/01 11:54:28;;;;;;;0.20;0.20;;;;;;;;;;5073443;28;20094;-77
2022/10/01 11:59:52;;;;;;;0.20;0.20;;;;;;;;;;5063033;28;20048;-78
2022/10/01 12:02:50;;;;;;;0.10;0.10;;;;;;;;;;5070020;28;20037;-78
2022/10/01 12:05:19;;;;;;;0.20;0.20;;;;;;;;;;5018431;28;20088;-79
2022/10/01 12:07:45;;;;;;;0.20;0.20;;;;;;;;;;5050751;28;20139;-78
2022/10/01 12:10:16;;;;;;;0.20;0.20;;;;;;;;;;5041149;28;20139;-78
2022/10/01 12:12:53;;;;;;;0.20;0.20;;;;;;;;;;5055461;28;20055;-79
2022/10/01 12:15:27;;;;;;;0.10;0.10;;;;;;;;;;5051224;28;20045;-79
2022/10/01 12:17:55;;;;;;;0.10;0.10;;;;;;;;;;5046907;28;20044;-79
2022/10/01 12:20:25;;;;;;;0.20;0.20;;;;;;;;;;5071459;28;20036;-78
2022/10/01 12:22:52;;;;;;;0.20;0.20;;;;;;;;;;5071403;28;20048;-79
2022/10/01 12:25:20;;;;;;;0.20;0.20;;;;;;;;;;5070912;28;20044;-78
2022/10/01 12:27:46;;;;;;;0.20;0.20;;;;;;;;;;5071791;28;20384;-78
2022/10/01 12:30:18;;;;;;;0.20;0.20;;;;;;;;;;5070777;28;20039;-79
2022/10/01 12:32:53;;;;;;;0.10;0.10;;;;;;;;;;5067996;28;20040;-79
2022/10/01 12:35:38;;;;;;;0.20;0.20;;;;;;;;;;5065772;28;20103;-78
2022/10/01 12:38:17;;;;;;;0.20;0.20;;;;;;;;;;5064175;28;20060;-78
2022/10/01 12:40:43;;;;;;;0.10;0.10;;;;;;;;;;5052471;28;20040;-79
2022/10/01 12:43:13;;;;;;;0.20;0.20;;;;;;;;;;5051862;28;20044;-81
2022/10/01 12:45:38;;;;;;;0.20;0.20;;;;;;;;;;5072088;28;20056;-79
2022/10/01 12:48:12;;;;;;;0.20;0.20;;;;;;;;;;5052629;28;20064;-80
2022/10/01 12:50:44;;;;;;;0.20;0.20;;;;;;;;;;5052887;28;20503;-80
2022/10/01 12:53:15;;;;;;;0.20;0.20;;;;;;;;;;5049891;28;20051;-81
2022/10/01 12:55:44;;;;;;;0.28;0.28;;;;;;;;;;5037574;28;20436;-78
2022/10/01 12:58:28;;;;;;;0.20;0.20;;;;;;;;;;5069758;28;20048;-79
2022/10/01 13:01:15;;;;;;;0.20;0.20;;;;;;;;;;5042904;28;20056;-78
2022/10/01 13:03:56;;;;;;;0.20;0.20;;;;;;;;;;5051701;28;20051;-79
2022/10/01 13:06:41;;;;;;;0.20;0.20;;;;;;;;;;5053372;28;20256;-78
2022/10/01 13:09:07;;;;;;;0.20;0.20;;;;;;;;;;5066931;28;20679;-78
2022/10/01 13:11:35;;;;;;;0.20;0.20;;;;;;;;;;5048332;28;20078;-77
2022/10/01 13:14:03;;;;;;;0.20;0.20;;;;;;;;;;5049962;28;20044;-78
2022/10/01 13:16:58;;;;;;;0.20;0.20;;;;;;;;;;5048841;28;20045;-78
2022/10/01 13:19:31;;;;;;;0.20;0.20;;;;;;;;;;5044819;28;20054;-78
2022/10/01 13:22:00;;;;;;;0.20;0.20;;;;;;;;;;5053364;28;20040;-78
2022/10/01 13:24:32;;;;;;;0.10;0.10;;;;;;;;;;5050021;28;20072;-78
2022/10/01 13:27:17;;;;;;;0.20;0.20;;;;;;;;;;5067491;28;20064;-78
2022/10/01 13:29:46;;;;;;;0.13;0.13;;;;;;;;;;5041516;28;20045;-77
2022/10/01 13:32:24;;;;;;;0.20;0.20;;;;;;;;;;5050607;28;20051;-78
2022/10/01 13:34:51;;;;;;;0.15;0.15;;;;;;;;;;5049833;28;20036;-77
2022/10/01 13:37:18;;;;;;;0.20;0.20;;;;;;;;;;5057055;28;20058;-76
2022/10/01 13:39:45;;;;;;;0.10;0.10;;;;;;;;;;5060701;28;20383;-77
2022/10/01 13:42:23;;;;;;;0.20;0.20;;;;;;;;;;5075360;28;20532;-78
2022/10/01 13:44:57;;;;;;;0.10;0.10;;;;;;;;;;5048353;28;20057;-77